createdAt,value
2023-05-23T00:01:43.643Z,15.60
2023-05-23T00:04:17.001Z,15.60
2023-05-23T00:06:50.535Z,15.52
2023-05-23T00:09:17.864Z,15.41
2023-05-23T00:11:45.982Z,15.49
2023-05-23T00:14:17.006Z,15.45
2023-05-23T00:16:46.495Z,15.55
2023-05-23T00:19:17.021Z,15.56
2023-05-23T00:21:48.718Z,15.45
2023-05-23T00:24:19.010Z,15.48
2023-05-23T00:26:46.835Z,15.43
2023-05-23T00:29:16.665Z,15.46
2023-05-23T00:31:47.900Z,15.29
2023-05-23T00:34:17.931Z,15.21
2023-05-23T00:36:48.026Z,15.08
2023-05-23T00:39:20.372Z,15.06
2023-05-23T00:41:52.338Z,15.15
2023-05-23T00:44:20.760Z,15.11
2023-05-23T00:46:55.476Z,15.06
2023-05-23T00:49:23.007Z,15.05
2023-05-23T00:51:52.154Z,15.05
2023-05-23T00:54:31.495Z,15.03
2023-05-23T00:56:59.337Z,14.89
2023-05-23T00:59:27.120Z,14.99
2023-05-23T01:01:57.439Z,14.95
2023-05-23T01:04:28.526Z,14.90
2023-05-23T01:06:56.310Z,14.85
2023-05-23T01:09:25.912Z,14.81
2023-05-23T01:12:11.490Z,14.79
2023-05-23T01:15:04.545Z,14.70
2023-05-23T01:18:21.603Z,14.67
2023-05-23T01:20:59.748Z,14.64
2023-05-23T01:24:16.779Z,14.43
2023-05-23T01:27:05.905Z,14.62
2023-05-23T01:29:38.044Z,14.56
2023-05-23T01:32:11.593Z,14.34
2023-05-23T01:34:39.903Z,14.31
2023-05-23T01:37:11.864Z,14.30
2023-05-23T01:39:39.221Z,14.15
2023-05-23T01:42:07.344Z,14.29
2023-05-23T01:44:36.022Z,14.27
2023-05-23T01:47:09.830Z,14.29
2023-05-23T01:49:38.371Z,14.29
2023-05-23T01:52:12.134Z,13.95
2023-05-23T01:54:43.465Z,13.96
2023-05-23T01:57:12.039Z,13.91
2023-05-23T01:59:39.187Z,13.87
2023-05-23T02:02:06.712Z,13.96
2023-05-23T02:04:34.182Z,14.00
2023-05-23T02:07:01.324Z,13.95
2023-05-23T02:09:28.378Z,13.83
2023-05-23T02:11:55.641Z,13.65
2023-05-23T02:14:24.027Z,13.61
2023-05-23T02:16:53.897Z,13.42
2023-05-23T02:19:21.204Z,13.49
2023-05-23T02:21:48.281Z,13.38
2023-05-23T02:24:15.385Z,13.15
2023-05-23T02:26:42.445Z,13.30
2023-05-23T02:29:09.503Z,13.37
2023-05-23T02:31:37.065Z,13.15
2023-05-23T02:34:04.175Z,13.21
2023-05-23T02:36:33.575Z,13.04
2023-05-23T02:39:00.732Z,13.15
2023-05-23T02:41:27.734Z,13.40
2023-05-23T02:43:55.797Z,13.46
2023-05-23T02:46:23.006Z,13.39
2023-05-23T02:48:50.442Z,13.39
2023-05-23T02:51:17.465Z,13.36
2023-05-23T02:53:44.505Z,13.43
2023-05-23T02:56:13.530Z,13.46
2023-05-23T02:58:40.690Z,13.50
2023-05-23T03:01:08.526Z,13.50
2023-05-23T03:03:35.956Z,13.67
2023-05-23T03:06:05.153Z,13.81
2023-05-23T03:08:32.374Z,13.75
2023-05-23T03:10:59.592Z,13.81
2023-05-23T03:13:26.970Z,13.99
2023-05-23T03:15:54.068Z,14.14
2023-05-23T03:18:21.286Z,14.39
2023-05-23T03:20:48.434Z,14.60
2023-05-23T03:23:15.547Z,14.81
2023-05-23T03:25:43.950Z,15.13
2023-05-23T03:28:12.372Z,15.36
2023-05-23T03:30:39.571Z,15.95
2023-05-23T03:33:07.550Z,17.12
2023-05-23T03:35:34.801Z,18.45
2023-05-23T03:38:01.964Z,20.07
2023-05-23T03:40:29.171Z,21.20
2023-05-23T03:43:22.575Z,22.08
2023-05-23T03:45:49.796Z,22.45
2023-05-23T03:48:16.924Z,23.18
2023-05-23T03:50:44.054Z,23.94
2023-05-23T03:53:11.131Z,24.98
2023-05-23T03:55:39.989Z,25.53
2023-05-23T03:58:07.359Z,25.41
2023-05-23T04:00:34.560Z,26.53
2023-05-23T04:03:01.741Z,26.90
2023-05-23T04:05:28.887Z,27.48
2023-05-23T04:07:55.995Z,27.80
2023-05-23T04:10:23.267Z,28.34
2023-05-23T04:12:51.728Z,29.04
2023-05-23T04:15:21.555Z,29.18
2023-05-23T04:17:48.810Z,30.32
2023-05-23T04:20:16.102Z,30.58
2023-05-23T04:22:43.363Z,31.12
2023-05-23T04:25:10.437Z,31.53
2023-05-23T04:27:40.547Z,32.84
2023-05-23T04:30:10.065Z,33.33
2023-05-23T04:32:38.317Z,33.53
2023-05-23T04:35:05.997Z,34.10
2023-05-23T04:37:33.186Z,34.06
2023-05-23T04:40:00.839Z,35.16
2023-05-23T04:42:29.441Z,34.75
2023-05-23T04:44:59.584Z,35.24
2023-05-23T04:47:28.691Z,35.95
2023-05-23T04:49:57.485Z,36.37
2023-05-23T04:52:25.562Z,37.54
2023-05-23T04:54:54.268Z,37.80
2023-05-23T04:57:22.195Z,38.25
2023-05-23T04:59:49.268Z,38.24
2023-05-23T05:02:16.315Z,38.57
2023-05-23T05:04:43.341Z,39.37
2023-05-23T05:07:10.596Z,39.91
2023-05-23T05:09:37.664Z,39.96
2023-05-23T05:12:04.898Z,40.63
2023-05-23T05:14:31.998Z,40.93
2023-05-23T05:16:59.374Z,42.16
2023-05-23T05:19:26.705Z,42.05
2023-05-23T05:21:53.818Z,41.84
2023-05-23T05:24:22.595Z,42.36
2023-05-23T05:26:49.889Z,42.89
2023-05-23T05:29:17.007Z,42.12
2023-05-23T05:31:45.306Z,42.41
2023-05-23T05:34:13.221Z,42.81
2023-05-23T05:36:46.007Z,43.55
2023-05-23T05:39:17.031Z,43.44
2023-05-23T05:41:44.039Z,42.85
2023-05-23T05:44:11.128Z,42.66
2023-05-23T05:46:38.207Z,42.58
2023-05-23T05:49:05.272Z,43.37
2023-05-23T05:51:32.390Z,43.38
2023-05-23T05:53:59.491Z,42.72
2023-05-23T05:56:27.965Z,43.27
2023-05-23T05:58:55.099Z,42.62
2023-05-23T06:01:22.165Z,43.69
2023-05-23T06:03:49.380Z,43.72
2023-05-23T06:06:16.952Z,43.29
2023-05-23T06:08:44.634Z,42.66
2023-05-23T06:11:12.285Z,42.81
2023-05-23T06:13:39.447Z,43.33
2023-05-23T06:16:07.122Z,42.95
2023-05-23T06:18:34.169Z,42.07
2023-05-23T06:21:01.406Z,43.05
2023-05-23T06:23:28.429Z,43.39
2023-05-23T06:25:55.614Z,43.36
2023-05-23T06:28:22.663Z,43.00
2023-05-23T06:30:49.809Z,41.08
2023-05-23T06:33:17.204Z,39.89
2023-05-23T06:35:44.282Z,40.98
2023-05-23T06:38:11.500Z,41.65
2023-05-23T06:40:38.595Z,41.35
2023-05-23T06:43:05.777Z,41.85
2023-05-23T06:45:35.179Z,41.79
2023-05-23T06:48:02.401Z,42.16
2023-05-23T06:50:29.835Z,41.85
2023-05-23T06:52:56.862Z,42.02
2023-05-23T06:55:24.481Z,42.26
2023-05-23T06:57:52.315Z,41.02
2023-05-23T07:00:20.216Z,41.98
2023-05-23T07:02:48.913Z,41.83
2023-05-23T07:05:16.463Z,41.66
2023-05-23T07:07:44.076Z,42.06
2023-05-23T07:10:11.527Z,42.12
2023-05-23T07:12:38.664Z,40.53
2023-05-23T07:15:06.483Z,40.88
2023-05-23T07:17:33.614Z,40.16
2023-05-23T07:20:01.386Z,40.29
2023-05-23T07:22:28.385Z,40.78
2023-05-23T07:24:55.512Z,40.55
2023-05-23T07:27:22.694Z,40.40
2023-05-23T07:29:50.907Z,39.54
2023-05-23T07:32:17.936Z,39.58
2023-05-23T07:34:44.977Z,38.09
2023-05-23T07:37:12.076Z,38.24
2023-05-23T07:39:39.099Z,36.65
2023-05-23T07:42:06.133Z,35.89
2023-05-23T07:44:33.163Z,35.09
2023-05-23T07:47:00.355Z,35.75
2023-05-23T07:49:27.452Z,35.36
2023-05-23T07:51:54.474Z,34.60
2023-05-23T07:54:21.557Z,33.97
2023-05-23T07:56:48.589Z,34.38
2023-05-23T07:59:15.755Z,34.17
2023-05-23T08:01:42.987Z,33.89
2023-05-23T08:04:10.068Z,33.91
2023-05-23T08:06:38.677Z,33.99
2023-05-23T08:09:09.936Z,32.83
2023-05-23T08:11:37.026Z,31.35
2023-05-23T08:14:04.118Z,32.38
2023-05-23T08:16:31.194Z,31.74
2023-05-23T08:18:58.301Z,31.07
2023-05-23T08:21:25.416Z,32.30
2023-05-23T08:23:52.463Z,32.11
2023-05-23T08:26:19.618Z,32.10
2023-05-23T08:28:46.944Z,32.24
2023-05-23T08:31:14.032Z,32.59
2023-05-23T08:33:41.086Z,32.10
2023-05-23T08:36:08.226Z,32.05
2023-05-23T08:38:35.270Z,32.02
2023-05-23T08:41:02.732Z,32.67
2023-05-23T08:43:29.983Z,33.17
2023-05-23T08:45:57.401Z,33.48
2023-05-23T08:48:27.102Z,32.47
2023-05-23T08:50:54.393Z,31.84
2023-05-23T08:53:23.611Z,31.63
2023-05-23T08:55:55.870Z,31.30
2023-05-23T08:58:24.876Z,31.13
2023-05-23T09:00:54.041Z,31.30
2023-05-23T09:03:22.241Z,31.31
2023-05-23T09:05:50.711Z,30.98
2023-05-23T09:08:19.268Z,29.78
2023-05-23T09:10:50.075Z,29.45
2023-05-23T09:13:17.896Z,28.97
2023-05-23T09:16:00.397Z,29.70
2023-05-23T09:18:28.341Z,30.63
2023-05-23T09:20:55.428Z,30.10
2023-05-23T09:23:22.487Z,30.00
2023-05-23T09:25:49.541Z,29.95
2023-05-23T09:28:16.607Z,29.22
2023-05-23T09:30:43.685Z,29.33
2023-05-23T09:33:14.168Z,29.77
2023-05-23T09:35:46.319Z,29.30
2023-05-23T09:38:13.762Z,28.62
2023-05-23T09:40:45.822Z,28.23
2023-05-23T09:43:12.857Z,27.83
2023-05-23T09:45:39.862Z,27.27
2023-05-23T09:48:14.188Z,26.96
2023-05-23T09:50:41.854Z,27.03
2023-05-23T09:53:09.170Z,27.84
2023-05-23T09:55:36.976Z,28.28
2023-05-23T09:58:04.994Z,28.68
2023-05-23T10:00:33.212Z,27.69
2023-05-23T10:03:13.168Z,27.17
2023-05-23T10:05:53.389Z,27.56
2023-05-23T10:08:36.570Z,27.27
2023-05-23T10:11:15.532Z,26.72
2023-05-23T10:13:49.221Z,26.92
2023-05-23T10:16:40.325Z,26.82
2023-05-23T10:19:20.741Z,27.14
2023-05-23T10:21:56.782Z,27.40
2023-05-23T10:24:25.924Z,27.85
2023-05-23T10:26:55.285Z,27.93
2023-05-23T10:29:23.350Z,27.70
2023-05-23T10:31:52.366Z,27.20
2023-05-23T10:34:31.804Z,27.71
2023-05-23T10:37:07.281Z,27.02
2023-05-23T10:39:46.092Z,26.83
2023-05-23T10:42:49.830Z,27.21
2023-05-23T10:45:22.500Z,26.72
2023-05-23T10:47:53.726Z,26.58
2023-05-23T10:50:37.172Z,26.99
2023-05-23T10:53:06.196Z,26.80
2023-05-23T10:55:36.684Z,27.06
2023-05-23T10:58:19.819Z,26.81
2023-05-23T11:01:01.592Z,26.49
2023-05-23T11:04:18.444Z,26.01
2023-05-23T11:06:45.066Z,26.22
2023-05-23T11:09:21.908Z,25.98
2023-05-23T11:11:57.467Z,26.27
2023-05-23T11:14:33.510Z,26.40
2023-05-23T11:17:15.137Z,26.77
2023-05-23T11:20:07.313Z,26.88
2023-05-23T11:22:36.081Z,26.45
2023-05-23T11:25:10.191Z,26.49
2023-05-23T11:27:40.704Z,26.80
2023-05-23T11:30:14.282Z,26.81
2023-05-23T11:32:42.871Z,26.26
2023-05-23T11:35:11.864Z,25.87
2023-05-23T11:37:39.979Z,26.49
2023-05-23T11:40:36.468Z,26.33
2023-05-23T11:43:15.172Z,26.61
2023-05-23T11:45:42.865Z,26.22
2023-05-23T11:48:12.028Z,26.59
2023-05-23T11:51:05.380Z,26.65
2023-05-23T11:53:33.024Z,26.37
2023-05-23T11:56:03.283Z,26.65
2023-05-23T11:58:36.414Z,26.49
2023-05-23T12:01:09.479Z,25.77
2023-05-23T12:03:47.682Z,25.86
2023-05-23T12:06:23.636Z,26.20
2023-05-23T12:08:52.824Z,26.23
2023-05-23T12:11:20.032Z,26.45
2023-05-23T12:13:47.212Z,26.06
2023-05-23T12:16:15.918Z,26.64
2023-05-23T12:18:43.560Z,26.53
2023-05-23T12:21:11.340Z,26.87
2023-05-23T12:23:40.587Z,26.55
2023-05-23T12:26:09.970Z,26.01
2023-05-23T12:28:38.891Z,26.49
2023-05-23T12:31:10.692Z,26.39
2023-05-23T12:33:45.367Z,26.48
2023-05-23T12:36:12.993Z,26.81
2023-05-23T12:38:45.436Z,26.43
2023-05-23T12:41:22.345Z,26.01
2023-05-23T12:43:54.866Z,26.08
2023-05-23T12:46:26.623Z,26.36
2023-05-23T12:48:54.478Z,26.56
2023-05-23T12:51:22.248Z,26.55
2023-05-23T12:53:49.425Z,26.70
2023-05-23T12:56:16.577Z,26.81
2023-05-23T12:58:44.005Z,26.81
2023-05-23T13:01:11.376Z,27.01
2023-05-23T13:03:38.628Z,27.17
2023-05-23T13:06:06.857Z,27.32
2023-05-23T13:08:33.896Z,27.31
2023-05-23T13:11:01.058Z,27.09
2023-05-23T13:13:28.315Z,27.17
2023-05-23T13:15:56.408Z,27.27
2023-05-23T13:18:23.720Z,27.19
2023-05-23T13:20:51.203Z,27.36
2023-05-23T13:23:18.270Z,27.28
2023-05-23T13:25:45.390Z,27.02
2023-05-23T13:28:12.456Z,27.40
2023-05-23T13:30:39.687Z,27.48
2023-05-23T13:33:07.043Z,26.76
2023-05-23T13:35:34.151Z,26.60
2023-05-23T13:38:01.323Z,26.25
2023-05-23T13:40:28.362Z,26.04
2023-05-23T13:42:55.946Z,26.16
2023-05-23T13:45:23.390Z,26.34
2023-05-23T13:47:50.737Z,26.17
2023-05-23T13:50:18.031Z,26.47
2023-05-23T13:52:49.116Z,26.04
2023-05-23T13:55:17.484Z,26.39
2023-05-23T13:57:44.767Z,26.22
2023-05-23T14:00:12.669Z,26.46
2023-05-23T14:02:39.919Z,26.02
2023-05-23T14:05:08.254Z,26.07
2023-05-23T14:07:36.510Z,26.31
2023-05-23T14:10:05.190Z,26.08
2023-05-23T14:12:32.223Z,25.98
2023-05-23T14:14:59.245Z,25.78
2023-05-23T14:17:26.794Z,25.92
2023-05-23T14:19:53.916Z,25.89
2023-05-23T14:22:20.916Z,26.07
2023-05-23T14:24:48.010Z,26.20
2023-05-23T14:27:15.022Z,26.19
2023-05-23T14:29:46.390Z,26.16
2023-05-23T14:32:13.998Z,25.81
2023-05-23T14:34:41.645Z,25.98
2023-05-23T14:37:08.718Z,26.00
2023-05-23T14:39:36.140Z,26.01
2023-05-23T14:42:03.832Z,25.64
2023-05-23T14:44:31.060Z,25.44
2023-05-23T14:46:58.263Z,25.73
2023-05-23T14:49:25.316Z,25.73
2023-05-23T14:51:52.420Z,25.71
2023-05-23T14:54:19.919Z,25.53
2023-05-23T14:56:47.067Z,25.31
2023-05-23T14:59:14.302Z,25.23
2023-05-23T15:01:41.807Z,25.09
2023-05-23T15:04:10.019Z,25.12
2023-05-23T15:06:39.241Z,25.15
2023-05-23T15:09:07.659Z,25.18
2023-05-23T15:11:38.913Z,25.20
2023-05-23T15:14:06.365Z,25.25
2023-05-23T15:16:35.240Z,25.54
2023-05-23T15:19:02.637Z,25.59
2023-05-23T15:21:29.846Z,25.73
2023-05-23T15:23:57.796Z,25.81
2023-05-23T15:26:25.366Z,25.57
2023-05-23T15:28:52.400Z,25.71
2023-05-23T15:31:19.542Z,25.47
2023-05-23T15:33:47.910Z,25.47
2023-05-23T15:36:15.214Z,25.62
2023-05-23T15:38:43.779Z,25.35
2023-05-23T15:41:11.519Z,25.13
2023-05-23T15:43:38.637Z,25.16
2023-05-23T15:46:05.773Z,25.29
2023-05-23T15:48:32.946Z,25.12
2023-05-23T15:51:00.084Z,25.02
2023-05-23T15:53:27.156Z,25.09
2023-05-23T15:55:54.198Z,25.21
2023-05-23T15:58:21.223Z,25.43
2023-05-23T16:00:48.234Z,25.57
2023-05-23T16:03:15.322Z,25.43
2023-05-23T16:05:42.531Z,25.77
2023-05-23T16:08:09.954Z,25.55
2023-05-23T16:10:37.026Z,25.10
2023-05-23T16:13:04.152Z,25.09
2023-05-23T16:15:31.250Z,25.01
2023-05-23T16:17:58.762Z,24.95
2023-05-23T16:20:26.030Z,25.10
2023-05-23T16:22:53.129Z,25.16
2023-05-23T16:25:20.181Z,24.98
2023-05-23T16:27:47.219Z,25.15
2023-05-23T16:30:14.385Z,24.84
2023-05-23T16:32:41.515Z,24.68
2023-05-23T16:35:10.279Z,24.54
2023-05-23T16:37:38.596Z,24.50
2023-05-23T16:40:14.058Z,24.64
2023-05-23T16:42:41.299Z,24.60
2023-05-23T16:45:08.693Z,24.49
2023-05-23T16:47:36.340Z,24.52
2023-05-23T16:50:04.979Z,24.52
2023-05-23T16:52:32.156Z,24.30
2023-05-23T16:54:59.192Z,24.48
2023-05-23T16:57:26.271Z,24.23
2023-05-23T16:59:53.300Z,24.17
2023-05-23T17:02:20.847Z,23.97
2023-05-23T17:04:48.241Z,24.07
2023-05-23T17:07:15.890Z,23.79
2023-05-23T17:09:43.281Z,23.98
2023-05-23T17:12:10.404Z,23.76
2023-05-23T17:14:37.539Z,23.55
2023-05-23T17:17:05.450Z,23.69
2023-05-23T17:19:32.630Z,23.69
2023-05-23T17:21:59.780Z,23.55
2023-05-23T17:24:28.034Z,23.67
2023-05-23T17:26:55.072Z,23.75
2023-05-23T17:29:22.169Z,23.82
2023-05-23T17:31:49.275Z,23.73
2023-05-23T17:34:16.985Z,23.55
2023-05-23T17:36:43.979Z,23.37
2023-05-23T17:39:11.006Z,23.70
2023-05-23T17:41:38.061Z,23.47
2023-05-23T17:44:05.108Z,23.43
2023-05-23T17:46:32.211Z,23.46
2023-05-23T17:48:59.277Z,23.41
2023-05-23T17:51:26.423Z,23.38
2023-05-23T17:53:53.930Z,23.27
2023-05-23T17:56:24.823Z,23.14
2023-05-23T17:58:52.805Z,23.19
2023-05-23T18:12:19.952Z,22.97
2023-05-23T18:14:48.050Z,23.05
2023-05-23T18:17:15.215Z,23.09
2023-05-23T18:19:42.415Z,22.96
2023-05-23T18:22:09.663Z,22.94
2023-05-23T18:24:36.875Z,22.86
2023-05-23T18:27:04.769Z,22.63
2023-05-23T18:29:31.878Z,22.75
2023-05-23T18:31:58.944Z,22.70
2023-05-23T18:34:28.480Z,22.73
2023-05-23T18:36:56.417Z,22.60
2023-05-23T18:39:23.871Z,22.58
2023-05-23T18:41:50.928Z,22.54
2023-05-23T18:44:20.654Z,22.60
2023-05-23T18:46:48.309Z,22.72
2023-05-23T18:49:15.810Z,22.57
2023-05-23T18:51:43.309Z,22.47
2023-05-23T18:54:10.383Z,22.51
2023-05-23T18:56:37.448Z,22.57
2023-05-23T18:59:04.537Z,22.57
2023-05-23T19:01:31.602Z,22.55
2023-05-23T19:03:58.744Z,22.58
2023-05-23T19:06:26.836Z,22.53
2023-05-23T19:08:53.893Z,22.69
2023-05-23T19:11:21.826Z,22.41
2023-05-23T19:13:48.879Z,22.41
2023-05-23T19:16:17.424Z,22.27
2023-05-23T19:18:45.182Z,22.11
2023-05-23T19:21:12.882Z,22.17
2023-05-23T19:23:40.090Z,22.20
2023-05-23T19:26:07.727Z,22.00
2023-05-23T19:28:35.243Z,21.96
2023-05-23T19:31:02.282Z,22.04
2023-05-23T19:33:29.338Z,21.82
2023-05-23T19:35:56.343Z,21.83
2023-05-23T19:38:23.424Z,22.02
2023-05-23T19:40:50.506Z,21.80
2023-05-23T19:43:17.710Z,21.53
2023-05-23T19:45:44.865Z,21.56
2023-05-23T19:48:12.297Z,21.69
2023-05-23T19:50:41.043Z,21.60
2023-05-23T19:53:08.232Z,21.55
2023-05-23T19:55:35.465Z,21.53
2023-05-23T19:58:02.652Z,21.69
2023-05-23T20:00:29.762Z,21.47
2023-05-23T20:02:56.954Z,21.52
2023-05-23T20:05:24.301Z,21.49
2023-05-23T20:07:53.139Z,21.55
2023-05-23T20:10:20.247Z,21.53
2023-05-23T20:12:48.080Z,21.57
2023-05-23T20:15:17.656Z,21.54
2023-05-23T20:17:48.989Z,21.38
2023-05-23T20:20:16.096Z,21.47
2023-05-23T20:22:43.187Z,21.20
2023-05-23T20:25:10.453Z,21.17
2023-05-23T20:27:37.523Z,21.03
2023-05-23T20:30:05.145Z,21.05
2023-05-23T20:32:32.266Z,21.10
2023-05-23T20:34:59.286Z,21.11
2023-05-23T20:37:28.335Z,21.11
2023-05-23T20:39:55.412Z,21.17
2023-05-23T20:42:22.641Z,21.15
2023-05-23T20:44:49.653Z,21.00
2023-05-23T20:47:17.723Z,21.00
2023-05-23T20:49:44.904Z,20.93
2023-05-23T20:52:11.947Z,20.89
2023-05-23T20:54:39.043Z,20.67
2023-05-23T20:57:06.198Z,20.88
2023-05-23T20:59:33.250Z,20.60
2023-05-23T21:02:00.407Z,20.64
2023-05-23T21:04:27.540Z,20.79
2023-05-23T21:06:54.560Z,20.62
2023-05-23T21:09:21.859Z,20.43
2023-05-23T21:11:48.939Z,20.40
2023-05-23T21:14:16.026Z,20.33
2023-05-23T21:16:43.128Z,20.39
2023-05-23T21:19:10.201Z,20.29
2023-05-23T21:21:37.668Z,20.16
2023-05-23T21:24:06.424Z,20.20
2023-05-23T21:26:33.631Z,20.30
2023-05-23T21:29:00.882Z,20.39
2023-05-23T21:31:40.390Z,20.31
2023-05-23T21:34:22.354Z,20.20
2023-05-23T21:36:51.499Z,20.15
2023-05-23T21:39:18.567Z,20.34
2023-05-23T21:41:45.693Z,20.12
2023-05-23T21:44:17.843Z,20.09
2023-05-23T21:46:45.568Z,20.26
2023-05-23T21:49:12.929Z,20.14
2023-05-23T21:51:39.979Z,20.16
2023-05-23T21:54:07.058Z,19.96
2023-05-23T21:56:34.103Z,20.07
2023-05-23T21:59:01.186Z,19.82
2023-05-23T22:01:28.237Z,19.93
2023-05-23T22:03:55.414Z,19.80
2023-05-23T22:06:22.528Z,19.73
2023-05-23T22:08:49.595Z,19.97
2023-05-23T22:11:16.828Z,19.82
2023-05-23T22:13:44.092Z,19.78
2023-05-23T22:16:11.256Z,19.77
2023-05-23T22:18:51.430Z,19.78
2023-05-23T22:21:18.823Z,19.79
2023-05-23T22:23:46.091Z,19.78
2023-05-23T22:26:14.062Z,19.82
2023-05-23T22:28:41.194Z,19.67
2023-05-23T22:31:09.812Z,19.65
2023-05-23T22:33:38.299Z,19.53
2023-05-23T22:36:06.322Z,19.52
2023-05-23T22:38:33.502Z,19.59
2023-05-23T22:41:00.605Z,19.46
2023-05-23T22:43:29.018Z,19.43
2023-05-23T22:45:57.092Z,19.44
2023-05-23T22:48:28.060Z,19.50
2023-05-23T22:50:55.147Z,19.51
2023-05-23T22:53:25.106Z,19.45
2023-05-23T22:55:52.307Z,19.58
2023-05-23T22:58:19.371Z,19.35
2023-05-23T23:00:46.492Z,19.34
2023-05-23T23:03:15.605Z,19.45
2023-05-23T23:05:42.867Z,19.41
2023-05-23T23:08:09.988Z,19.41
2023-05-23T23:10:37.081Z,19.39
2023-05-23T23:13:04.187Z,19.29
2023-05-23T23:15:33.887Z,19.20
2023-05-23T23:18:01.371Z,19.04
2023-05-23T23:20:29.410Z,19.28
2023-05-23T23:22:57.607Z,19.17
2023-05-23T23:25:24.795Z,19.01
2023-05-23T23:27:51.916Z,19.00
2023-05-23T23:30:18.983Z,19.07
2023-05-23T23:32:46.045Z,19.00
2023-05-23T23:35:13.139Z,19.07
2023-05-23T23:37:40.488Z,18.99
2023-05-23T23:40:08.790Z,18.90
2023-05-23T23:42:35.850Z,18.88
2023-05-23T23:45:03.829Z,18.90
2023-05-23T23:47:32.597Z,19.04
2023-05-23T23:50:00.216Z,18.95
2023-05-23T23:52:28.192Z,18.98
2023-05-23T23:54:55.367Z,19.18
2023-05-23T23:57:22.458Z,18.97
2023-05-23T23:59:49.532Z,18.87
